createdAt,value
2017-10-14T00:00:16.010Z,1015.91
2017-10-14T00:00:56.523Z,1015.87
2017-10-14T00:01:36.924Z,1015.91
2017-10-14T00:02:17.402Z,1015.91
2017-10-14T00:02:57.810Z,1015.89
2017-10-14T00:03:38.262Z,1015.92
2017-10-14T00:04:18.754Z,1015.91
2017-10-14T00:04:59.186Z,1015.91
2017-10-14T00:05:39.660Z,1015.9
2017-10-14T00:06:20.042Z,1015.87
2017-10-14T00:07:00.537Z,1015.88
2017-10-14T00:07:40.971Z,1015.9
2017-10-14T00:08:21.469Z,1015.92
2017-10-14T00:09:01.888Z,1015.95
2017-10-14T00:09:42.446Z,1015.92
2017-10-14T00:10:22.951Z,1015.95
2017-10-14T00:11:03.476Z,1015.94
2017-10-14T00:11:44.046Z,1015.94
2017-10-14T00:12:24.529Z,1015.95
2017-10-14T00:13:04.986Z,1015.97
2017-10-14T00:13:45.421Z,1015.95
2017-10-14T00:14:25.989Z,1015.96
2017-10-14T00:15:06.398Z,1015.94
2017-10-14T00:15:46.825Z,1015.96
2017-10-14T00:16:27.293Z,1015.95
2017-10-14T00:17:07.726Z,1015.91
2017-10-14T00:17:48.232Z,1015.94
2017-10-14T00:18:28.704Z,1015.94
2017-10-14T00:19:09.264Z,1015.91
2017-10-14T00:19:49.704Z,1015.96
2017-10-14T00:20:30.121Z,1015.97
2017-10-14T00:21:10.589Z,1015.92
2017-10-14T00:21:51.021Z,1015.94
2017-10-14T00:22:31.506Z,1015.97
2017-10-14T00:23:12.052Z,1015.96
2017-10-14T00:23:52.396Z,1015.94
2017-10-14T00:24:32.872Z,1015.96
2017-10-14T00:25:13.470Z,1015.98
2017-10-14T00:25:53.892Z,1016
2017-10-14T00:26:34.380Z,1015.98
2017-10-14T00:27:14.888Z,1015.99
2017-10-14T00:27:55.291Z,1015.99
2017-10-14T00:28:35.776Z,1016.01
2017-10-14T00:29:17.098Z,1015.97
2017-10-14T00:29:57.616Z,1015.97
2017-10-14T00:30:38.121Z,1015.99
2017-10-14T00:31:18.580Z,1015.99
2017-10-14T00:31:59.110Z,1016.02
2017-10-14T00:32:39.575Z,1015.97
2017-10-14T00:33:20.056Z,1015.98
2017-10-14T00:34:00.500Z,1015.97
2017-10-14T00:34:41.037Z,1015.96
2017-10-14T00:35:21.421Z,1015.98
2017-10-14T00:36:01.975Z,1015.98
2017-10-14T00:36:42.434Z,1016.02
2017-10-14T00:37:22.888Z,1016
2017-10-14T00:38:03.295Z,1016.01
2017-10-14T00:38:43.787Z,1016.01
2017-10-14T00:39:24.211Z,1016
2017-10-14T00:40:04.699Z,1016.01
2017-10-14T00:40:45.169Z,1016.05
2017-10-14T00:41:25.593Z,1015.98
2017-10-14T00:42:06.017Z,1016
2017-10-14T00:42:46.574Z,1016.02
2017-10-14T00:43:27.014Z,1016.02
2017-10-14T00:44:07.473Z,1016.04
2017-10-14T00:44:47.971Z,1016.04
2017-10-14T00:45:28.454Z,1016.03
2017-10-14T00:46:08.868Z,1015.99
2017-10-14T00:46:49.457Z,1016.02
2017-10-14T00:47:29.821Z,1016
2017-10-14T00:48:10.313Z,1016.05
2017-10-14T00:48:50.699Z,1016.05
2017-10-14T00:49:31.215Z,1016.02
2017-10-14T00:50:11.649Z,1016.03
2017-10-14T00:50:52.078Z,1016.03
2017-10-14T00:51:32.522Z,1016.01
2017-10-14T00:52:13.078Z,1016.03
2017-10-14T00:52:53.527Z,1016.05
2017-10-14T00:53:33.977Z,1016.03
2017-10-14T00:54:14.457Z,1016.05
2017-10-14T00:54:54.911Z,1016.01
2017-10-14T00:55:35.411Z,1016.03
2017-10-14T00:56:15.839Z,1016.06
2017-10-14T00:56:56.294Z,1016.06
2017-10-14T00:57:36.819Z,1016.03
2017-10-14T00:58:17.213Z,1016.04
2017-10-14T00:58:57.745Z,1016.06
2017-10-14T00:59:38.245Z,1016.06
2017-10-14T01:00:18.694Z,1016.04
2017-10-14T01:00:59.391Z,1016.01
2017-10-14T01:01:39.821Z,1016
2017-10-14T01:02:20.344Z,1016.02
2017-10-14T01:04:14.358Z,1015.98
2017-10-14T01:04:54.751Z,1016
2017-10-14T01:05:35.244Z,1015.98
2017-10-14T01:06:15.656Z,1015.97
2017-10-14T01:06:56.140Z,1015.97
2017-10-14T01:07:36.685Z,1016.01
2017-10-14T01:08:17.044Z,1016
2017-10-14T01:08:57.556Z,1015.99
2017-10-14T01:09:38.165Z,1016
2017-10-14T01:10:18.699Z,1016
2017-10-14T01:10:59.147Z,1015.96
2017-10-14T01:11:39.682Z,1015.97
2017-10-14T01:12:20.084Z,1016
2017-10-14T01:13:00.637Z,1015.99
2017-10-14T01:13:41.387Z,1015.98
2017-10-14T01:14:21.941Z,1015.99
2017-10-14T01:15:02.349Z,1015.99
2017-10-14T01:15:42.798Z,1015.98
2017-10-14T01:16:23.288Z,1015.97
2017-10-14T01:17:03.729Z,1015.98
2017-10-14T01:17:44.146Z,1015.97
2017-10-14T01:18:24.601Z,1015.96
2017-10-14T01:20:23.022Z,1015.95
2017-10-14T01:21:03.535Z,1015.95
2017-10-14T01:21:43.961Z,1015.94
2017-10-14T01:22:24.459Z,1015.94
2017-10-14T01:23:04.911Z,1015.95
2017-10-14T01:23:45.407Z,1015.95
2017-10-14T01:24:25.859Z,1015.99
2017-10-14T01:25:06.495Z,1015.99
2017-10-14T01:25:46.917Z,1015.96
2017-10-14T01:26:27.348Z,1016
2017-10-14T01:27:07.845Z,1016
2017-10-14T01:27:48.313Z,1015.98
2017-10-14T01:28:28.830Z,1016
2017-10-14T01:29:09.254Z,1015.96
2017-10-14T01:29:49.720Z,1016.04
2017-10-14T01:30:30.204Z,1016.02
2017-10-14T01:31:10.659Z,1016.04
2017-10-14T01:31:51.117Z,1016.04
2017-10-14T01:32:31.575Z,1016.04
2017-10-14T01:33:12.086Z,1016.03
2017-10-14T01:33:52.526Z,1016.05
2017-10-14T01:34:32.948Z,1016.07
2017-10-14T01:35:13.430Z,1016.04
2017-10-14T01:35:53.850Z,1016.05
2017-10-14T01:36:34.286Z,1016.05
2017-10-14T01:37:14.831Z,1016.08
2017-10-14T01:37:55.324Z,1016.09
2017-10-14T01:38:35.665Z,1016.07
2017-10-14T01:39:16.110Z,1016.05
2017-10-14T01:39:56.606Z,1016.05
2017-10-14T01:40:37.060Z,1016.06
2017-10-14T01:41:17.528Z,1016.06
2017-10-14T01:41:58.025Z,1016.05
2017-10-14T01:42:38.469Z,1016.04
2017-10-14T01:43:18.929Z,1016.09
2017-10-14T01:43:59.366Z,1016.03
2017-10-14T01:44:39.852Z,1016.03
2017-10-14T01:45:20.320Z,1016.02
2017-10-14T01:46:00.728Z,1015.99
2017-10-14T01:46:41.220Z,1015.97
2017-10-14T01:47:21.751Z,1015.99
2017-10-14T01:48:02.207Z,1015.99
2017-10-14T01:48:42.656Z,1015.97
2017-10-14T01:49:23.163Z,1015.98
2017-10-14T01:50:03.681Z,1015.97
2017-10-14T01:50:44.077Z,1015.97
2017-10-14T01:51:24.564Z,1016.01
2017-10-14T01:52:05.041Z,1016
2017-10-14T01:52:45.497Z,1016
2017-10-14T01:53:25.975Z,1016
2017-10-14T01:54:06.512Z,1016.02
2017-10-14T01:54:47.027Z,1016.01
2017-10-14T01:55:27.443Z,1016.01
2017-10-14T01:56:07.979Z,1016
2017-10-14T01:56:48.367Z,1016
2017-10-14T01:57:28.818Z,1016
2017-10-14T01:58:09.365Z,1015.98
2017-10-14T01:58:49.817Z,1016.01
2017-10-14T01:59:30.388Z,1016
2017-10-14T02:00:10.894Z,1015.98
2017-10-14T02:00:51.422Z,1015.97
2017-10-14T02:01:31.842Z,1015.97
2017-10-14T02:02:12.337Z,1015.96
2017-10-14T02:02:52.794Z,1016
2017-10-14T02:03:33.267Z,1015.98
2017-10-14T02:04:13.794Z,1015.97
2017-10-14T02:04:54.276Z,1015.96
2017-10-14T02:05:34.709Z,1015.95
2017-10-14T02:06:15.166Z,1015.92
2017-10-14T02:06:55.711Z,1015.94
2017-10-14T02:07:36.161Z,1015.91
2017-10-14T02:08:16.641Z,1015.88
2017-10-14T02:08:57.033Z,1015.9
2017-10-14T02:09:37.518Z,1015.9
2017-10-14T02:10:17.941Z,1015.87
2017-10-14T02:10:58.405Z,1015.91
2017-10-14T02:11:38.922Z,1015.89
2017-10-14T02:12:19.400Z,1015.89
2017-10-14T02:12:59.862Z,1015.9
2017-10-14T02:13:40.367Z,1015.9
2017-10-14T02:14:20.901Z,1015.89
2017-10-14T02:15:01.387Z,1015.92
2017-10-14T02:15:41.861Z,1015.87
2017-10-14T02:16:22.294Z,1015.84
2017-10-14T02:17:02.719Z,1015.84
2017-10-14T02:17:43.325Z,1015.82
2017-10-14T02:18:23.783Z,1015.81
2017-10-14T02:19:04.199Z,1015.84
2017-10-14T02:21:02.571Z,1015.82
2017-10-14T02:21:42.971Z,1015.8
2017-10-14T02:22:23.479Z,1015.85
2017-10-14T02:23:03.954Z,1015.81
2017-10-14T02:23:44.500Z,1015.85
2017-10-14T02:24:24.911Z,1015.85
2017-10-14T02:25:05.355Z,1015.84
2017-10-14T02:25:45.830Z,1015.81
2017-10-14T02:26:26.276Z,1015.86
2017-10-14T02:27:06.736Z,1015.83
2017-10-14T02:27:47.192Z,1015.87
2017-10-14T02:28:27.661Z,1015.86
2017-10-14T02:29:08.112Z,1015.85
2017-10-14T02:29:48.627Z,1015.88
2017-10-14T02:30:29.031Z,1015.88
2017-10-14T02:31:09.560Z,1015.9
2017-10-14T02:31:50.039Z,1015.91
2017-10-14T02:32:30.506Z,1015.89
2017-10-14T02:33:10.961Z,1015.88
2017-10-14T02:33:51.427Z,1015.91
2017-10-14T02:34:31.877Z,1015.92
2017-10-14T02:35:12.330Z,1015.88
2017-10-14T02:35:52.796Z,1015.87
2017-10-14T02:36:33.283Z,1015.92
2017-10-14T02:37:14.490Z,1015.92
2017-10-14T02:37:54.933Z,1015.9
2017-10-14T02:38:35.516Z,1015.92
2017-10-14T02:39:16.160Z,1015.87
2017-10-14T02:39:56.643Z,1015.93
2017-10-14T02:40:37.104Z,1015.93
2017-10-14T02:41:17.644Z,1015.92
2017-10-14T02:41:58.059Z,1015.94
2017-10-14T02:42:38.507Z,1015.92
2017-10-14T02:43:18.983Z,1015.94
2017-10-14T02:43:59.420Z,1015.96
2017-10-14T02:44:39.848Z,1015.96
2017-10-14T02:47:08.402Z,1015.93
2017-10-14T02:47:48.762Z,1015.93
2017-10-14T02:48:29.322Z,1015.95
2017-10-14T02:49:09.789Z,1015.96
2017-10-14T02:49:50.226Z,1015.97
2017-10-14T02:50:30.745Z,1015.94
2017-10-14T02:51:11.245Z,1015.96
2017-10-14T02:51:51.727Z,1015.98
2017-10-14T02:52:32.170Z,1015.99
2017-10-14T02:53:12.619Z,1015.98
2017-10-14T02:53:53.048Z,1015.99
2017-10-14T02:54:33.480Z,1016
2017-10-14T02:55:13.945Z,1015.99
2017-10-14T02:55:54.351Z,1016.01
2017-10-14T02:56:34.854Z,1016.02
2017-10-14T02:57:15.266Z,1015.97
2017-10-14T02:57:55.797Z,1016.01
2017-10-14T02:58:36.291Z,1016
2017-10-14T02:59:16.817Z,1016
2017-10-14T02:59:57.289Z,1016.02
2017-10-14T03:00:37.812Z,1016.01
2017-10-14T03:01:18.243Z,1016.01
2017-10-14T03:01:58.674Z,1016.01
2017-10-14T03:02:39.137Z,1016.03
2017-10-14T03:04:37.723Z,1016.03
2017-10-14T03:05:18.241Z,1016.01
2017-10-14T03:05:58.759Z,1015.96
2017-10-14T03:06:39.288Z,1016.01
2017-10-14T03:07:19.708Z,1016
2017-10-14T03:08:00.242Z,1015.98
2017-10-14T03:08:40.696Z,1015.98
2017-10-14T03:09:21.536Z,1016.01
2017-10-14T03:11:19.245Z,1015.99
2017-10-14T03:11:59.670Z,1016.02
2017-10-14T03:12:40.170Z,1016
2017-10-14T03:13:20.596Z,1016.01
2017-10-14T03:14:01.102Z,1016
2017-10-14T03:14:41.515Z,1016.06
2017-10-14T03:15:22.000Z,1016.01
2017-10-14T03:16:02.489Z,1016.04
2017-10-14T03:16:42.898Z,1016.01
2017-10-14T03:17:23.355Z,1016
2017-10-14T03:18:03.881Z,1016.03
2017-10-14T03:18:44.371Z,1016.01
2017-10-14T03:19:24.733Z,1016.05
2017-10-14T03:20:05.178Z,1016.01
2017-10-14T03:20:45.629Z,1016.01
2017-10-14T03:21:26.072Z,1015.99
2017-10-14T03:22:06.563Z,1016
2017-10-14T03:22:47.118Z,1015.98
2017-10-14T03:23:27.614Z,1015.97
2017-10-14T03:24:07.974Z,1015.98
2017-10-14T03:24:48.417Z,1015.99
2017-10-14T03:25:28.975Z,1015.98
2017-10-14T03:26:09.343Z,1016.01
2017-10-14T03:26:49.773Z,1016
2017-10-14T03:27:30.230Z,1015.99
2017-10-14T03:28:10.717Z,1015.98
2017-10-14T03:28:51.127Z,1015.99
2017-10-14T03:29:31.601Z,1016.03
2017-10-14T03:30:12.067Z,1016
2017-10-14T03:30:52.502Z,1016
2017-10-14T03:31:32.971Z,1016.01
2017-10-14T03:33:51.551Z,1016.01
2017-10-14T03:34:32.029Z,1016
2017-10-14T03:35:12.450Z,1016.03
2017-10-14T03:35:52.859Z,1016
2017-10-14T03:36:33.321Z,1016.03
2017-10-14T03:37:13.780Z,1016.02
2017-10-14T03:37:54.221Z,1016
2017-10-14T03:38:34.715Z,1016.04
2017-10-14T03:39:15.156Z,1015.97
2017-10-14T03:39:55.599Z,1015.98
2017-10-14T03:40:36.090Z,1015.99
2017-10-14T03:41:16.520Z,1016.01
2017-10-14T03:41:56.978Z,1015.99
2017-10-14T03:42:37.470Z,1016.01
2017-10-14T03:43:17.963Z,1015.98
2017-10-14T03:43:58.467Z,1016.01
2017-10-14T03:44:38.920Z,1016
2017-10-14T03:45:19.445Z,1015.99
2017-10-14T03:45:59.905Z,1015.98
2017-10-14T03:46:40.358Z,1015.98
2017-10-14T03:47:20.825Z,1015.98
2017-10-14T03:48:01.264Z,1015.96
2017-10-14T03:48:41.721Z,1015.91
2017-10-14T03:49:22.267Z,1015.92
2017-10-14T03:50:02.686Z,1015.92
2017-10-14T03:50:43.141Z,1015.93
2017-10-14T03:51:23.589Z,1015.93
2017-10-14T03:52:04.035Z,1015.9
2017-10-14T03:52:44.728Z,1015.89
2017-10-14T03:53:25.229Z,1015.89
2017-10-14T03:54:05.619Z,1015.9
2017-10-14T03:54:46.128Z,1015.89
2017-10-14T03:55:26.550Z,1015.93
2017-10-14T03:56:06.997Z,1015.91
2017-10-14T03:56:47.508Z,1015.92
2017-10-14T03:57:28.003Z,1015.91
2017-10-14T03:58:08.473Z,1015.9
2017-10-14T03:58:48.905Z,1015.93
2017-10-14T03:59:29.344Z,1015.94
2017-10-14T04:00:09.746Z,1015.93
2017-10-14T04:00:50.422Z,1015.9
2017-10-14T04:01:30.870Z,1015.94
2017-10-14T04:02:11.385Z,1015.93
2017-10-14T04:02:51.805Z,1015.94
2017-10-14T04:03:32.256Z,1015.97
2017-10-14T04:04:12.717Z,1015.94
2017-10-14T04:04:53.272Z,1015.98
2017-10-14T04:05:33.760Z,1016.02
2017-10-14T04:06:14.320Z,1015.97
2017-10-14T04:06:54.842Z,1015.97
2017-10-14T04:07:35.287Z,1015.97
2017-10-14T04:08:15.760Z,1016.01
2017-10-14T04:08:56.230Z,1015.98
2017-10-14T04:09:36.729Z,1015.96
2017-10-14T04:10:17.244Z,1016.02
2017-10-14T04:10:57.692Z,1016.01
2017-10-14T04:11:38.138Z,1016
2017-10-14T04:12:18.616Z,1016.01
2017-10-14T04:12:59.072Z,1016.01
2017-10-14T04:13:39.587Z,1015.98
2017-10-14T04:14:20.093Z,1016.01
2017-10-14T04:15:00.703Z,1015.98
2017-10-14T04:15:41.190Z,1016.02
2017-10-14T04:16:21.652Z,1016.07
2017-10-14T04:17:02.097Z,1016.03
2017-10-14T04:17:42.571Z,1016.06
2017-10-14T04:18:22.959Z,1016.09
2017-10-14T04:19:03.414Z,1016.07
2017-10-14T04:21:22.001Z,1016.04
2017-10-14T04:22:02.413Z,1016.04
2017-10-14T04:22:42.896Z,1016.07
2017-10-14T04:23:23.415Z,1016.05
2017-10-14T04:24:03.887Z,1016.05
2017-10-14T04:24:44.378Z,1016.05
2017-10-14T04:25:24.966Z,1016.08
2017-10-14T04:26:05.399Z,1016.05
2017-10-14T04:26:45.903Z,1016.05
2017-10-14T04:27:26.482Z,1016.07
2017-10-14T04:28:06.982Z,1016.05
2017-10-14T04:28:47.483Z,1016.08
2017-10-14T04:29:27.905Z,1016.08
2017-10-14T04:30:08.353Z,1016.11
2017-10-14T04:30:48.836Z,1016.09
2017-10-14T04:31:29.294Z,1016.1
2017-10-14T04:32:09.734Z,1016.08
2017-10-14T04:32:50.259Z,1016.09
2017-10-14T04:33:30.726Z,1016.08
2017-10-14T04:34:11.222Z,1016.11
2017-10-14T04:34:51.662Z,1016.09
2017-10-14T04:35:32.144Z,1016.07
2017-10-14T04:36:12.625Z,1016.12
2017-10-14T04:36:53.035Z,1016.1
2017-10-14T04:37:33.523Z,1016.11
2017-10-14T04:38:14.040Z,1016.08
2017-10-14T04:38:54.501Z,1016.12
2017-10-14T04:39:35.745Z,1016.07
2017-10-14T04:40:16.171Z,1016.14
2017-10-14T04:40:56.665Z,1016.12
2017-10-14T04:41:37.073Z,1016.1
2017-10-14T04:42:17.535Z,1016.05
2017-10-14T04:42:57.991Z,1016.1
2017-10-14T04:43:38.443Z,1016.1
2017-10-14T04:44:18.902Z,1016.07
2017-10-14T04:44:59.344Z,1016.1
2017-10-14T04:45:39.820Z,1016.12
2017-10-14T04:46:20.298Z,1016.08
2017-10-14T04:47:00.779Z,1016.08
2017-10-14T04:47:41.231Z,1016.09
2017-10-14T04:48:21.674Z,1016.1
2017-10-14T04:49:02.100Z,1016.11
2017-10-14T04:49:42.576Z,1016.06
2017-10-14T04:50:23.029Z,1016.09
2017-10-14T04:51:03.738Z,1016.03
2017-10-14T04:51:44.212Z,1016.07
2017-10-14T04:52:24.660Z,1016.04
2017-10-14T04:53:05.120Z,1016.03
2017-10-14T04:53:45.521Z,1016
2017-10-14T04:54:25.984Z,1016
2017-10-14T04:55:06.430Z,1015.99
2017-10-14T04:55:47.009Z,1015.98
2017-10-14T04:56:27.449Z,1016
2017-10-14T04:57:07.904Z,1016.02
2017-10-14T04:57:48.392Z,1015.95
2017-10-14T04:58:28.880Z,1015.95
2017-10-14T04:59:09.398Z,1015.95
2017-10-14T04:59:49.849Z,1015.93
2017-10-14T05:00:30.424Z,1015.92
2017-10-14T05:01:10.867Z,1015.95
2017-10-14T05:01:51.318Z,1015.89
2017-10-14T05:02:31.944Z,1015.89
2017-10-14T05:03:12.239Z,1015.9
2017-10-14T05:03:52.701Z,1015.92
2017-10-14T05:04:33.162Z,1015.94
2017-10-14T05:05:13.619Z,1015.9
2017-10-14T05:07:32.079Z,1015.93
2017-10-14T05:08:12.549Z,1015.97
2017-10-14T05:08:52.996Z,1015.9
2017-10-14T05:09:33.556Z,1015.94
2017-10-14T05:10:14.085Z,1015.92
2017-10-14T05:10:54.588Z,1015.93
2017-10-14T05:11:34.947Z,1015.94
2017-10-14T05:12:15.403Z,1015.91
2017-10-14T05:12:55.937Z,1015.94
2017-10-14T05:13:36.299Z,1015.95
2017-10-14T05:14:16.813Z,1015.96
2017-10-14T05:14:57.327Z,1015.97
2017-10-14T05:15:37.776Z,1016
2017-10-14T05:16:18.332Z,1016.06
2017-10-14T05:16:58.833Z,1016.07
2017-10-14T05:17:39.338Z,1016.05
2017-10-14T05:18:19.818Z,1016.02
2017-10-14T05:19:00.464Z,1016.03
2017-10-14T05:19:40.742Z,1016.04
2017-10-14T05:20:21.195Z,1016.04
2017-10-14T05:21:01.820Z,1016.01
2017-10-14T05:23:30.030Z,1016.07
2017-10-14T05:24:10.432Z,1016.05
2017-10-14T05:24:50.907Z,1016.08
2017-10-14T05:25:31.394Z,1016.09
2017-10-14T05:26:11.805Z,1016.06
2017-10-14T05:26:52.261Z,1016.12
2017-10-14T05:27:32.724Z,1016.11
2017-10-14T05:28:13.187Z,1016.14
2017-10-14T05:28:53.697Z,1016.12
2017-10-14T05:29:34.097Z,1016.09
2017-10-14T05:32:02.899Z,1016.13
2017-10-14T05:32:43.399Z,1016.16
2017-10-14T05:33:23.823Z,1016.16
2017-10-14T05:34:04.214Z,1016.17
2017-10-14T05:34:44.709Z,1016.17
2017-10-14T05:35:25.104Z,1016.16
2017-10-14T05:36:05.753Z,1016.18
2017-10-14T05:36:46.302Z,1016.18
2017-10-14T05:37:26.842Z,1016.18
2017-10-14T05:38:07.401Z,1016.18
2017-10-14T05:38:48.066Z,1016.19
2017-10-14T05:39:28.688Z,1016.19
2017-10-14T05:40:09.288Z,1016.18
2017-10-14T05:40:50.003Z,1016.16
2017-10-14T05:41:30.634Z,1016.18
2017-10-14T05:42:11.226Z,1016.2
2017-10-14T05:42:51.898Z,1016.13
2017-10-14T05:43:32.447Z,1016.15
2017-10-14T05:44:13.092Z,1016.16
2017-10-14T05:44:53.680Z,1016.13
2017-10-14T05:45:34.319Z,1016.14
2017-10-14T05:46:14.916Z,1016.12
2017-10-14T05:46:55.617Z,1016.16
2017-10-14T05:47:36.115Z,1016.12
2017-10-14T05:48:16.779Z,1016.13
2017-10-14T05:48:57.397Z,1016.18
2017-10-14T05:49:37.805Z,1016.21
2017-10-14T05:50:18.309Z,1016.2
2017-10-14T05:50:58.725Z,1016.24
2017-10-14T05:51:39.222Z,1016.2
2017-10-14T05:52:19.640Z,1016.22
2017-10-14T05:53:00.141Z,1016.25
2017-10-14T05:53:40.657Z,1016.25
2017-10-14T05:54:21.364Z,1016.26
2017-10-14T05:55:01.823Z,1016.28
2017-10-14T05:55:42.330Z,1016.29
2017-10-14T05:56:22.862Z,1016.29
2017-10-14T05:57:03.422Z,1016.28
2017-10-14T05:57:43.855Z,1016.27
2017-10-14T05:58:24.283Z,1016.28
2017-10-14T05:59:04.746Z,1016.27
2017-10-14T05:59:45.200Z,1016.27
2017-10-14T06:00:25.650Z,1016.26
2017-10-14T06:01:06.256Z,1016.3
2017-10-14T06:01:46.777Z,1016.29
2017-10-14T06:02:27.282Z,1016.28
2017-10-14T06:03:07.702Z,1016.32
2017-10-14T06:03:48.153Z,1016.3
2017-10-14T06:04:28.723Z,1016.33
2017-10-14T06:05:09.164Z,1016.36
2017-10-14T06:05:49.627Z,1016.35
2017-10-14T06:06:30.142Z,1016.33
2017-10-14T06:07:10.615Z,1016.35
2017-10-14T06:07:51.079Z,1016.37
2017-10-14T06:08:31.661Z,1016.38
2017-10-14T06:09:12.135Z,1016.39
2017-10-14T06:09:52.583Z,1016.39
2017-10-14T06:10:33.121Z,1016.39
2017-10-14T06:11:13.586Z,1016.45
2017-10-14T06:11:54.053Z,1016.42
2017-10-14T06:12:34.607Z,1016.42
2017-10-14T06:13:14.975Z,1016.44
2017-10-14T06:13:55.506Z,1016.45
2017-10-14T06:14:35.959Z,1016.45
2017-10-14T06:15:16.448Z,1016.44
2017-10-14T06:15:57.080Z,1016.41
2017-10-14T06:16:37.477Z,1016.43
2017-10-14T06:17:18.020Z,1016.41
2017-10-14T06:17:58.497Z,1016.45
2017-10-14T06:18:38.951Z,1016.43
2017-10-14T06:19:19.443Z,1016.41
2017-10-14T06:20:00.039Z,1016.38
2017-10-14T06:20:40.474Z,1016.43
2017-10-14T06:21:20.886Z,1016.41
2017-10-14T06:22:01.404Z,1016.45
2017-10-14T06:22:41.778Z,1016.43
2017-10-14T06:23:22.332Z,1016.42
2017-10-14T06:24:02.756Z,1016.45
2017-10-14T06:24:43.183Z,1016.47
2017-10-14T06:25:23.684Z,1016.48
2017-10-14T06:26:04.126Z,1016.48
2017-10-14T06:26:44.605Z,1016.51
2017-10-14T06:27:25.065Z,1016.53
2017-10-14T06:28:05.535Z,1016.57
2017-10-14T06:28:46.292Z,1016.56
2017-10-14T06:29:26.683Z,1016.55
2017-10-14T06:30:07.356Z,1016.58
2017-10-14T06:30:47.793Z,1016.58
2017-10-14T06:31:28.262Z,1016.58
2017-10-14T06:32:08.890Z,1016.59
2017-10-14T06:32:49.446Z,1016.59
2017-10-14T06:33:29.847Z,1016.63
2017-10-14T06:34:10.397Z,1016.63
2017-10-14T06:34:50.863Z,1016.65
2017-10-14T06:35:31.483Z,1016.67
2017-10-14T06:36:11.873Z,1016.65
2017-10-14T06:36:52.410Z,1016.66
2017-10-14T06:37:32.830Z,1016.66
2017-10-14T06:38:13.338Z,1016.67
2017-10-14T06:38:53.795Z,1016.67
2017-10-14T06:39:34.268Z,1016.65
2017-10-14T06:40:14.742Z,1016.64
2017-10-14T06:40:55.241Z,1016.65
2017-10-14T06:41:35.634Z,1016.63
2017-10-14T06:42:16.101Z,1016.67
2017-10-14T06:42:56.553Z,1016.64
2017-10-14T06:43:37.019Z,1016.66
2017-10-14T06:44:17.542Z,1016.7
2017-10-14T06:44:58.009Z,1016.69
2017-10-14T06:45:38.401Z,1016.7
2017-10-14T06:46:19.077Z,1016.71
2017-10-14T06:46:59.607Z,1016.7
2017-10-14T06:47:40.045Z,1016.73
2017-10-14T06:48:20.546Z,1016.72
2017-10-14T06:49:00.986Z,1016.73
2017-10-14T06:49:41.440Z,1016.77
2017-10-14T06:50:21.988Z,1016.79
2017-10-14T06:51:02.429Z,1016.78
2017-10-14T06:51:42.835Z,1016.83
2017-10-14T06:52:23.396Z,1016.81
2017-10-14T06:53:03.892Z,1016.83
2017-10-14T06:53:44.507Z,1016.8
2017-10-14T06:54:24.860Z,1016.82
2017-10-14T06:55:05.369Z,1016.83
2017-10-14T06:55:45.863Z,1016.81
2017-10-14T06:56:26.339Z,1016.85
2017-10-14T06:57:06.803Z,1016.84
2017-10-14T06:57:47.255Z,1016.82
2017-10-14T06:58:27.724Z,1016.82
2017-10-14T06:59:08.220Z,1016.83
2017-10-14T06:59:48.641Z,1016.84
2017-10-14T07:00:29.091Z,1016.85
2017-10-14T07:01:09.564Z,1016.8
2017-10-14T07:01:49.990Z,1016.82
2017-10-14T07:02:30.481Z,1016.85
2017-10-14T07:03:10.914Z,1016.84
2017-10-14T07:03:51.371Z,1016.88
2017-10-14T07:04:31.851Z,1016.87
2017-10-14T07:05:12.304Z,1016.92
2017-10-14T07:05:52.804Z,1016.91
2017-10-14T07:06:33.311Z,1016.94
2017-10-14T07:07:13.924Z,1016.97
2017-10-14T07:07:54.455Z,1016.98
2017-10-14T07:08:34.942Z,1016.95
2017-10-14T07:09:15.367Z,1016.98
2017-10-14T07:09:55.914Z,1016.98
2017-10-14T07:10:36.362Z,1016.96
2017-10-14T07:11:16.930Z,1016.98
2017-10-14T07:11:57.381Z,1016.97
2017-10-14T07:12:37.852Z,1016.99
2017-10-14T07:13:18.388Z,1016.99
2017-10-14T07:13:58.914Z,1017.01
2017-10-14T07:14:39.376Z,1017.01
2017-10-14T07:15:19.851Z,1017.02
2017-10-14T07:16:00.362Z,1017.01
2017-10-14T07:16:40.814Z,1016.99
2017-10-14T07:17:21.273Z,1017
2017-10-14T07:18:01.735Z,1017.02
2017-10-14T07:18:43.147Z,1017.05
2017-10-14T07:19:22.724Z,1017.07
2017-10-14T07:20:03.242Z,1017.07
2017-10-14T07:20:43.752Z,1017.05
2017-10-14T07:21:24.177Z,1017.07
2017-10-14T07:22:04.667Z,1017.07
2017-10-14T07:22:45.166Z,1017.06
2017-10-14T07:23:25.581Z,1017.09
2017-10-14T07:24:06.060Z,1017.1
2017-10-14T07:24:46.501Z,1017.1
2017-10-14T07:25:26.979Z,1017.08
2017-10-14T07:26:07.577Z,1017.08
2017-10-14T07:26:48.071Z,1017.1
2017-10-14T07:27:28.544Z,1017.13
2017-10-14T07:29:27.760Z,1017.14
2017-10-14T07:30:08.215Z,1017.11
2017-10-14T07:30:48.770Z,1017.15
2017-10-14T07:31:29.333Z,1017.19
2017-10-14T07:32:09.760Z,1017.23
2017-10-14T07:32:50.623Z,1017.22
2017-10-14T07:33:30.772Z,1017.23
2017-10-14T07:34:11.343Z,1017.24
2017-10-14T07:34:51.788Z,1017.23
2017-10-14T07:35:32.196Z,1017.23
2017-10-14T07:36:12.811Z,1017.26
2017-10-14T07:36:53.259Z,1017.25
2017-10-14T07:37:33.755Z,1017.28
2017-10-14T07:39:31.977Z,1017.26
2017-10-14T07:40:12.332Z,1017.29
2017-10-14T07:40:52.798Z,1017.26
2017-10-14T07:41:33.329Z,1017.31
2017-10-14T07:42:13.841Z,1017.25
2017-10-14T07:42:54.422Z,1017.29
2017-10-14T07:43:34.925Z,1017.28
2017-10-14T07:44:15.470Z,1017.25
2017-10-14T07:44:56.020Z,1017.26
2017-10-14T07:45:36.487Z,1017.25
2017-10-14T07:46:16.936Z,1017.27
2017-10-14T07:46:57.430Z,1017.27
2017-10-14T07:47:37.874Z,1017.25
2017-10-14T07:48:18.393Z,1017.21
2017-10-14T07:48:58.862Z,1017.21
2017-10-14T07:49:39.333Z,1017.21
2017-10-14T07:50:19.900Z,1017.19
2017-10-14T07:51:00.290Z,1017.18
2017-10-14T07:51:40.737Z,1017.17
2017-10-14T07:52:21.297Z,1017.22
2017-10-14T07:53:01.867Z,1017.2
2017-10-14T07:53:42.400Z,1017.22
2017-10-14T07:54:22.849Z,1017.21
2017-10-14T07:55:03.511Z,1017.23
2017-10-14T07:55:43.974Z,1017.23
2017-10-14T07:56:24.520Z,1017.21
2017-10-14T07:57:04.959Z,1017.2
2017-10-14T07:57:45.443Z,1017.17
2017-10-14T07:58:25.950Z,1017.17
2017-10-14T07:59:06.377Z,1017.18
2017-10-14T07:59:47.146Z,1017.2
2017-10-14T08:00:27.615Z,1017.17
2017-10-14T08:01:08.081Z,1017.15
2017-10-14T08:01:48.602Z,1017.2
2017-10-14T08:02:28.987Z,1017.17
2017-10-14T08:03:09.453Z,1017.15
2017-10-14T08:03:50.053Z,1017.14
2017-10-14T08:04:30.415Z,1017.18
2017-10-14T08:05:10.925Z,1017.19
2017-10-14T08:05:51.379Z,1017.14
2017-10-14T08:06:31.844Z,1017.17
2017-10-14T08:07:12.297Z,1017.17
2017-10-14T08:07:52.926Z,1017.17
2017-10-14T08:08:33.514Z,1017.18
2017-10-14T08:09:14.048Z,1017.15
2017-10-14T08:09:54.522Z,1017.2
2017-10-14T08:10:35.071Z,1017.22
2017-10-14T08:11:15.519Z,1017.21
2017-10-14T08:11:55.986Z,1017.22
2017-10-14T08:12:36.435Z,1017.21
2017-10-14T08:13:17.002Z,1017.18
2017-10-14T08:13:57.418Z,1017.2
2017-10-14T08:14:37.847Z,1017.22
2017-10-14T08:15:18.468Z,1017.28
2017-10-14T08:15:58.881Z,1017.22
2017-10-14T08:16:39.339Z,1017.31
2017-10-14T08:17:19.876Z,1017.28
2017-10-14T08:18:00.393Z,1017.28
2017-10-14T08:18:40.822Z,1017.27
2017-10-14T08:19:21.335Z,1017.27
2017-10-14T08:20:01.819Z,1017.29
2017-10-14T08:20:42.273Z,1017.32
2017-10-14T08:21:22.798Z,1017.32
2017-10-14T08:22:03.296Z,1017.34
2017-10-14T08:22:43.761Z,1017.32
2017-10-14T08:23:24.230Z,1017.35
2017-10-14T08:24:04.734Z,1017.34
2017-10-14T08:24:45.218Z,1017.33
2017-10-14T08:25:25.803Z,1017.38
2017-10-14T08:26:06.354Z,1017.33
2017-10-14T08:26:46.812Z,1017.33
2017-10-14T08:27:27.438Z,1017.36
2017-10-14T08:28:07.852Z,1017.36
2017-10-14T08:28:48.378Z,1017.35
2017-10-14T08:29:28.909Z,1017.33
2017-10-14T08:30:09.472Z,1017.32
2017-10-14T08:30:49.917Z,1017.41
2017-10-14T08:31:30.451Z,1017.38
2017-10-14T08:32:10.941Z,1017.42